createdAt,value
2022-09-30T00:00:58.081Z,92.83
2022-09-30T00:03:25.111Z,93.46
2022-09-30T00:06:07.619Z,93.16
2022-09-30T00:08:37.408Z,93.11
2022-09-30T00:11:08.787Z,93.19
2022-09-30T00:13:37.360Z,93.01
2022-09-30T00:16:05.271Z,92.79
2022-09-30T00:18:32.925Z,92.82
2022-09-30T00:20:59.905Z,92.77
2022-09-30T00:23:26.813Z,93.30
2022-09-30T00:26:02.007Z,93.40
2022-09-30T00:28:29.955Z,93.75
2022-09-30T00:31:05.396Z,93.47
2022-09-30T00:33:32.473Z,93.30
2022-09-30T00:35:59.707Z,93.24
2022-09-30T00:38:26.732Z,93.11
2022-09-30T00:40:54.084Z,92.95
2022-09-30T00:43:41.268Z,92.71
2022-09-30T00:46:42.278Z,92.82
2022-09-30T00:49:20.691Z,92.95
2022-09-30T00:51:56.178Z,92.88
2022-09-30T00:54:29.543Z,92.97
2022-09-30T00:57:00.442Z,93.17
2022-09-30T00:59:43.176Z,93.21
2022-09-30T01:02:13.009Z,92.56
2022-09-30T01:04:41.430Z,91.97
2022-09-30T01:07:10.744Z,91.92
2022-09-30T01:09:40.537Z,92.01
2022-09-30T01:12:20.908Z,92.17
2022-09-30T01:14:53.154Z,92.43
2022-09-30T01:17:26.044Z,92.24
2022-09-30T01:20:17.006Z,92.42
2022-09-30T01:23:11.683Z,92.32
2022-09-30T01:25:41.251Z,92.34
2022-09-30T01:28:45.575Z,91.86
2022-09-30T01:31:34.736Z,92.06
2022-09-30T01:34:10.129Z,92.07
2022-09-30T01:36:43.291Z,92.50
2022-09-30T01:39:34.960Z,92.96
2022-09-30T01:42:10.520Z,93.21
2022-09-30T01:44:58.690Z,93.13
2022-09-30T01:47:40.291Z,93.30
2022-09-30T01:50:19.463Z,93.49
2022-09-30T01:52:49.464Z,93.30
2022-09-30T01:55:29.435Z,93.13
2022-09-30T01:58:12.057Z,93.25
2022-09-30T02:00:42.665Z,93.20
2022-09-30T02:03:16.354Z,93.35
2022-09-30T02:05:46.961Z,93.56
2022-09-30T02:08:31.580Z,93.83
2022-09-30T02:11:05.127Z,93.91
2022-09-30T02:13:54.161Z,93.64
2022-09-30T02:16:27.130Z,93.78
2022-09-30T02:18:58.802Z,94.07
2022-09-30T02:21:31.930Z,93.85
2022-09-30T02:24:05.712Z,94.04
2022-09-30T02:26:37.599Z,94.34
2022-09-30T02:29:10.868Z,94.56
2022-09-30T02:31:41.734Z,94.65
2022-09-30T02:34:16.686Z,94.57
2022-09-30T02:36:54.601Z,94.33
2022-09-30T02:39:28.647Z,94.91
2022-09-30T02:42:03.311Z,94.71
2022-09-30T02:44:31.826Z,95.52
2022-09-30T02:47:13.136Z,94.04
2022-09-30T02:49:49.787Z,94.22
2022-09-30T02:52:34.925Z,94.27
2022-09-30T02:55:09.102Z,94.25
2022-09-30T02:57:42.455Z,94.27
2022-09-30T03:00:13.027Z,94.18
2022-09-30T03:02:41.641Z,94.36
2022-09-30T03:05:09.962Z,94.45
2022-09-30T03:07:37.695Z,94.30
2022-09-30T03:10:15.685Z,94.14
2022-09-30T03:12:48.387Z,93.75
2022-09-30T03:15:30.470Z,94.27
2022-09-30T03:18:03.328Z,94.39
2022-09-30T03:20:52.989Z,94.58
2022-09-30T03:23:30.751Z,94.68
2022-09-30T03:26:13.563Z,94.65
2022-09-30T03:28:58.825Z,94.61
2022-09-30T03:31:36.526Z,94.88
2022-09-30T03:34:21.971Z,94.85
2022-09-30T03:37:36.688Z,94.79
2022-09-30T03:40:11.723Z,94.72
2022-09-30T03:42:45.898Z,94.69
2022-09-30T03:45:39.220Z,94.14
2022-09-30T03:48:09.513Z,93.84
2022-09-30T03:50:37.953Z,93.68
2022-09-30T03:53:10.819Z,94.07
2022-09-30T03:55:47.848Z,94.33
2022-09-30T03:58:16.047Z,94.59
2022-09-30T04:00:48.661Z,94.62
2022-09-30T04:03:16.575Z,94.72
2022-09-30T04:05:43.814Z,94.88
2022-09-30T04:08:10.719Z,94.88
2022-09-30T04:10:40.087Z,94.73
2022-09-30T04:13:06.860Z,95.01
2022-09-30T04:15:33.999Z,95.14
2022-09-30T04:18:00.776Z,94.88
2022-09-30T04:20:27.515Z,95.09
2022-09-30T04:22:57.402Z,95.39
2022-09-30T04:25:24.163Z,95.15
2022-09-30T04:27:50.812Z,94.68
2022-09-30T04:30:21.283Z,94.59
2022-09-30T04:32:50.549Z,94.41
2022-09-30T04:35:17.390Z,94.59
2022-09-30T04:37:44.590Z,94.46
2022-09-30T04:40:13.067Z,94.65
2022-09-30T04:42:42.913Z,94.39
2022-09-30T04:45:11.452Z,94.25
2022-09-30T04:47:38.331Z,94.19
2022-09-30T04:50:06.112Z,94.49
2022-09-30T04:52:32.775Z,94.40
2022-09-30T04:54:59.556Z,94.81
2022-09-30T04:57:27.144Z,95.01
2022-09-30T04:59:53.836Z,94.76
2022-09-30T05:02:20.562Z,94.93
2022-09-30T05:04:47.365Z,94.88
2022-09-30T05:07:14.078Z,95.06
2022-09-30T05:09:40.881Z,94.94
2022-09-30T05:12:08.163Z,95.13
2022-09-30T05:14:34.981Z,95.19
2022-09-30T05:17:02.134Z,95.52
2022-09-30T05:19:29.940Z,95.68
2022-09-30T05:21:56.746Z,95.37
2022-09-30T05:24:23.991Z,95.34
2022-09-30T05:26:50.609Z,95.39
2022-09-30T05:29:17.380Z,95.25
2022-09-30T05:31:44.224Z,95.36
2022-09-30T05:34:10.987Z,95.30
2022-09-30T05:36:37.835Z,95.31
2022-09-30T05:39:05.492Z,95.22
2022-09-30T05:41:32.734Z,95.25
2022-09-30T05:44:01.032Z,95.25
2022-09-30T05:46:28.507Z,95.19
2022-09-30T05:48:55.413Z,95.29
2022-09-30T05:51:22.597Z,95.14
2022-09-30T05:53:49.262Z,94.93
2022-09-30T05:56:16.154Z,94.92
2022-09-30T05:58:42.890Z,95.40
2022-09-30T06:01:13.828Z,95.24
2022-09-30T06:03:42.943Z,93.41
2022-09-30T06:06:11.248Z,93.70
2022-09-30T06:08:38.365Z,93.64
2022-09-30T06:11:13.196Z,93.70
2022-09-30T06:13:41.623Z,93.75
2022-09-30T06:16:09.877Z,93.76
2022-09-30T06:18:39.069Z,93.27
2022-09-30T06:21:05.894Z,93.30
2022-09-30T06:23:35.112Z,93.72
2022-09-30T06:26:03.500Z,92.78
2022-09-30T06:28:30.345Z,92.97
2022-09-30T06:30:57.195Z,92.72
2022-09-30T06:33:23.934Z,92.85
2022-09-30T06:35:50.984Z,92.64
2022-09-30T06:38:17.750Z,92.08
2022-09-30T06:40:49.501Z,91.89
2022-09-30T06:43:19.800Z,91.75
2022-09-30T06:45:48.234Z,91.53
2022-09-30T06:48:20.216Z,91.43
2022-09-30T06:51:01.362Z,91.26
2022-09-30T06:53:29.663Z,91.10
2022-09-30T06:55:57.522Z,91.07
2022-09-30T06:58:25.460Z,90.89
2022-09-30T07:01:06.452Z,93.08
2022-09-30T07:03:35.394Z,89.92
2022-09-30T07:06:05.276Z,89.61
2022-09-30T07:08:34.427Z,89.79
2022-09-30T07:11:11.922Z,88.47
2022-09-30T07:13:39.593Z,88.23
2022-09-30T07:16:06.553Z,87.76
2022-09-30T07:18:33.348Z,87.83
2022-09-30T07:21:18.826Z,86.41
2022-09-30T07:24:04.374Z,86.06
2022-09-30T07:26:34.389Z,85.60
2022-09-30T07:29:01.326Z,85.88
2022-09-30T07:31:33.738Z,85.11
2022-09-30T07:34:07.336Z,85.06
2022-09-30T07:36:37.791Z,84.95
2022-09-30T07:39:08.524Z,84.87
2022-09-30T07:41:39.162Z,84.59
2022-09-30T07:44:10.202Z,84.96
2022-09-30T07:46:40.319Z,85.05
2022-09-30T07:49:12.757Z,84.97
2022-09-30T07:51:41.792Z,84.39
2022-09-30T07:54:12.635Z,85.20
2022-09-30T07:59:31.661Z,84.80
2022-09-30T08:01:58.547Z,85.22
2022-09-30T08:04:27.228Z,85.53
2022-09-30T08:06:57.391Z,85.52
2022-09-30T08:09:26.779Z,85.92
2022-09-30T08:11:54.170Z,85.69
2022-09-30T08:14:24.125Z,84.77
2022-09-30T08:16:51.554Z,84.84
2022-09-30T08:19:21.224Z,84.87
2022-09-30T08:21:48.729Z,83.83
2022-09-30T08:24:15.612Z,83.00
2022-09-30T08:26:42.677Z,82.04
2022-09-30T08:29:17.005Z,81.13
2022-09-30T08:31:48.135Z,78.91
2022-09-30T08:34:15.306Z,78.66
2022-09-30T08:36:42.080Z,78.65
2022-09-30T08:39:11.030Z,78.82
2022-09-30T08:41:43.881Z,76.30
2022-09-30T08:44:31.482Z,77.40
2022-09-30T08:47:46.043Z,76.95
2022-09-30T08:50:36.802Z,74.90
2022-09-30T08:53:09.509Z,74.49
2022-09-30T08:55:43.150Z,73.93
2022-09-30T08:58:18.517Z,70.28
2022-09-30T09:00:45.396Z,69.23
2022-09-30T09:03:14.397Z,67.47
2022-09-30T09:06:18.050Z,66.63
2022-09-30T09:09:10.595Z,64.40
2022-09-30T09:12:03.122Z,64.01
2022-09-30T09:14:54.908Z,61.86
2022-09-30T09:18:21.505Z,61.01
2022-09-30T09:20:59.978Z,60.09
2022-09-30T09:23:30.983Z,59.47
2022-09-30T09:25:58.340Z,60.31
2022-09-30T09:28:30.910Z,58.54
2022-09-30T09:30:59.696Z,57.48
2022-09-30T09:33:30.593Z,56.39
2022-09-30T09:36:25.329Z,56.30
2022-09-30T09:39:06.066Z,54.99
2022-09-30T09:41:55.999Z,54.63
2022-09-30T09:44:53.678Z,53.86
2022-09-30T09:47:20.695Z,53.88
2022-09-30T09:49:57.730Z,53.20
2022-09-30T09:52:46.747Z,51.17
2022-09-30T09:55:18.011Z,51.64
2022-09-30T09:57:44.733Z,50.72
2022-09-30T10:00:44.138Z,50.34
2022-09-30T10:03:21.781Z,49.70
2022-09-30T10:06:03.895Z,49.27
2022-09-30T10:08:36.678Z,48.85
2022-09-30T10:11:17.606Z,49.56
2022-09-30T10:13:45.730Z,48.62
2022-09-30T10:16:32.529Z,50.53
2022-09-30T10:19:00.181Z,50.63
2022-09-30T10:21:29.122Z,53.36
2022-09-30T10:23:57.708Z,53.67
2022-09-30T10:29:01.536Z,58.31
2022-09-30T10:31:35.940Z,56.37
2022-09-30T10:34:18.382Z,53.65
2022-09-30T10:36:46.571Z,50.55
2022-09-30T10:39:30.114Z,49.66
2022-09-30T10:42:03.342Z,50.52
2022-09-30T10:44:30.673Z,50.57
2022-09-30T10:47:03.299Z,49.55
2022-09-30T10:49:42.459Z,48.53
2022-09-30T10:52:20.115Z,47.27
2022-09-30T10:54:56.597Z,47.96
2022-09-30T10:57:29.883Z,47.45
2022-09-30T11:00:10.295Z,45.65
2022-09-30T11:02:43.590Z,45.49
2022-09-30T11:05:42.730Z,43.73
2022-09-30T11:08:29.238Z,43.27
2022-09-30T11:11:18.159Z,42.13
2022-09-30T11:14:10.075Z,43.26
2022-09-30T11:16:58.121Z,42.90
2022-09-30T11:19:33.050Z,42.68
2022-09-30T11:22:28.165Z,42.26
2022-09-30T11:24:57.191Z,41.89
2022-09-30T11:27:49.600Z,41.73
2022-09-30T11:30:44.292Z,43.13
2022-09-30T11:33:16.956Z,42.27
2022-09-30T11:35:57.611Z,41.24
2022-09-30T11:38:49.378Z,42.37
2022-09-30T11:41:29.095Z,41.00
2022-09-30T11:44:21.747Z,43.23
2022-09-30T11:47:08.762Z,41.60
2022-09-30T11:49:53.551Z,44.41
2022-09-30T11:52:42.248Z,46.77
2022-09-30T11:55:46.645Z,45.57
2022-09-30T12:01:33.186Z,46.28
2022-09-30T12:04:13.059Z,47.50
2022-09-30T12:06:44.229Z,50.38
2022-09-30T12:09:20.947Z,50.76
2022-09-30T12:12:00.292Z,50.76
2022-09-30T12:15:05.810Z,51.08
2022-09-30T12:17:54.946Z,53.06
2022-09-30T12:20:39.448Z,51.98
2022-09-30T12:23:18.060Z,51.89
2022-09-30T12:25:55.936Z,51.38
2022-09-30T12:28:53.415Z,52.35
2022-09-30T12:31:36.153Z,54.33
2022-09-30T12:34:25.469Z,55.15
2022-09-30T12:37:11.357Z,54.91
2022-09-30T12:39:54.624Z,54.53
2022-09-30T12:42:55.285Z,55.12
2022-09-30T12:45:31.354Z,54.78
2022-09-30T12:48:00.155Z,54.00
2022-09-30T12:50:30.183Z,54.79
2022-09-30T12:52:58.116Z,55.22
2022-09-30T12:55:31.218Z,57.61
2022-09-30T12:58:02.257Z,57.93
2022-09-30T13:00:32.952Z,57.69
2022-09-30T13:03:04.409Z,57.70
2022-09-30T13:05:31.002Z,57.07
2022-09-30T13:08:04.017Z,55.14
2022-09-30T13:10:32.717Z,55.13
2022-09-30T13:13:23.738Z,55.28
2022-09-30T13:15:56.278Z,56.03
2022-09-30T13:18:27.014Z,56.86
2022-09-30T13:21:06.740Z,57.79
2022-09-30T13:23:36.398Z,58.28
2022-09-30T13:26:07.333Z,59.30
2022-09-30T13:28:38.443Z,57.93
2022-09-30T13:31:21.276Z,56.84
2022-09-30T13:34:10.618Z,55.85
2022-09-30T13:36:44.397Z,55.74
2022-09-30T13:39:32.012Z,54.36
2022-09-30T13:42:27.097Z,54.08
2022-09-30T13:45:47.518Z,55.80
2022-09-30T13:48:43.150Z,57.68
2022-09-30T13:51:16.529Z,57.16
2022-09-30T13:53:51.978Z,58.01
2022-09-30T13:56:26.232Z,58.58
2022-09-30T13:59:18.367Z,54.05
2022-09-30T14:02:05.557Z,53.53
2022-09-30T14:04:52.003Z,50.64
2022-09-30T14:07:30.834Z,49.00
2022-09-30T14:10:19.314Z,47.86
2022-09-30T14:13:19.605Z,48.12
2022-09-30T14:16:22.461Z,47.09
2022-09-30T14:19:11.011Z,46.31
2022-09-30T14:21:57.858Z,46.98
2022-09-30T14:24:35.116Z,46.65
2022-09-30T14:27:21.661Z,47.96
2022-09-30T14:29:51.201Z,50.47
2022-09-30T14:32:31.439Z,51.54
2022-09-30T14:35:00.432Z,52.08
2022-09-30T14:37:30.488Z,53.24
2022-09-30T14:39:57.524Z,53.96
2022-09-30T14:42:45.537Z,54.22
2022-09-30T14:45:21.639Z,54.92
2022-09-30T14:47:51.289Z,55.07
2022-09-30T14:50:22.891Z,54.84
2022-09-30T14:52:55.739Z,55.60
2022-09-30T14:55:31.949Z,55.02
2022-09-30T14:58:21.603Z,54.65
2022-09-30T15:01:31.615Z,56.18
2022-09-30T15:04:14.560Z,56.47
2022-09-30T15:06:46.614Z,56.12
2022-09-30T15:09:28.195Z,57.00
2022-09-30T15:11:55.644Z,57.43
2022-09-30T15:14:24.444Z,58.22
2022-09-30T15:16:54.375Z,57.32
2022-09-30T15:19:22.636Z,58.96
2022-09-30T15:21:52.039Z,56.29
2022-09-30T15:24:21.340Z,57.36
2022-09-30T15:26:49.327Z,57.13
2022-09-30T15:29:17.126Z,57.91
2022-09-30T15:31:59.624Z,58.28
2022-09-30T15:34:28.852Z,58.98
2022-09-30T15:37:00.356Z,59.61
2022-09-30T15:39:50.826Z,60.24
2022-09-30T15:42:38.670Z,59.52
2022-09-30T15:45:35.599Z,59.60
2022-09-30T15:48:25.746Z,59.52
2022-09-30T15:50:56.011Z,59.64
2022-09-30T15:53:26.664Z,59.93
2022-09-30T15:55:56.277Z,60.51
2022-09-30T15:58:38.195Z,60.41
2022-09-30T16:01:22.094Z,60.64
2022-09-30T16:03:56.960Z,61.41
2022-09-30T16:06:37.738Z,62.38
2022-09-30T16:09:08.681Z,62.15
2022-09-30T16:11:46.882Z,62.28
2022-09-30T16:14:30.137Z,62.63
2022-09-30T16:17:02.450Z,64.25
2022-09-30T16:19:30.994Z,64.40
2022-09-30T16:22:01.783Z,66.36
2022-09-30T16:24:28.920Z,64.91
2022-09-30T16:26:56.736Z,67.20
2022-09-30T16:29:28.505Z,67.17
2022-09-30T16:31:56.753Z,67.65
2022-09-30T16:34:26.017Z,69.90
2022-09-30T16:37:29.357Z,68.80
2022-09-30T16:40:05.544Z,70.00
2022-09-30T16:42:32.960Z,70.72
2022-09-30T16:45:00.973Z,71.80
2022-09-30T16:47:27.727Z,72.87
2022-09-30T16:49:54.364Z,73.48
2022-09-30T16:52:21.089Z,73.86
2022-09-30T16:54:47.802Z,72.76
2022-09-30T16:57:15.824Z,73.90
2022-09-30T16:59:42.702Z,74.25
2022-09-30T17:02:13.900Z,74.33
2022-09-30T17:04:40.914Z,74.66
2022-09-30T17:07:11.810Z,74.82
2022-09-30T17:09:39.494Z,75.05
2022-09-30T17:12:06.198Z,75.46
2022-09-30T17:14:33.273Z,76.17
2022-09-30T17:17:00.027Z,75.77
2022-09-30T17:19:30.072Z,76.35
2022-09-30T17:21:56.740Z,76.93
2022-09-30T17:24:23.637Z,76.34
2022-09-30T17:26:50.844Z,77.30
2022-09-30T17:29:31.807Z,77.46
2022-09-30T17:31:59.380Z,77.98
2022-09-30T17:34:27.896Z,78.21
2022-09-30T17:36:56.161Z,78.16
2022-09-30T17:39:23.022Z,77.76
2022-09-30T17:42:08.194Z,78.14
2022-09-30T17:44:34.938Z,78.72
2022-09-30T17:47:02.002Z,78.89
2022-09-30T17:49:35.608Z,79.30
2022-09-30T17:52:03.119Z,79.19
2022-09-30T17:54:31.442Z,79.90
2022-09-30T17:56:58.645Z,80.40
2022-09-30T17:59:26.972Z,80.69
2022-09-30T18:01:56.369Z,80.85
2022-09-30T18:04:25.882Z,80.78
2022-09-30T18:06:57.280Z,81.37
2022-09-30T18:09:42.317Z,81.10
2022-09-30T18:12:10.001Z,81.30
2022-09-30T18:14:38.186Z,81.91
2022-09-30T18:17:06.479Z,83.08
2022-09-30T18:19:35.419Z,83.62
2022-09-30T18:22:02.865Z,84.35
2022-09-30T18:24:48.247Z,84.45
2022-09-30T18:27:15.187Z,85.07
2022-09-30T18:29:42.114Z,85.00
2022-09-30T18:32:09.155Z,84.64
2022-09-30T18:34:35.901Z,84.30
2022-09-30T18:37:06.816Z,84.36
2022-09-30T18:39:39.932Z,84.35
2022-09-30T18:42:06.595Z,84.64
2022-09-30T18:44:37.531Z,84.75
2022-09-30T18:47:05.533Z,85.06
2022-09-30T18:49:32.276Z,85.23
2022-09-30T18:51:59.711Z,84.99
2022-09-30T18:54:26.422Z,84.91
2022-09-30T18:56:53.050Z,85.29
2022-09-30T18:59:23.282Z,85.36
2022-09-30T19:01:51.281Z,85.73
2022-09-30T19:04:18.225Z,86.01
2022-09-30T19:06:47.608Z,86.03
2022-09-30T19:09:16.493Z,85.97
2022-09-30T19:11:44.802Z,86.26
2022-09-30T19:14:12.878Z,86.56
2022-09-30T19:16:40.580Z,86.80
2022-09-30T19:19:10.385Z,86.89
2022-09-30T19:21:38.456Z,86.99
2022-09-30T19:24:07.232Z,86.85
2022-09-30T19:26:36.314Z,86.98
2022-09-30T19:29:05.309Z,86.87
2022-09-30T19:31:33.976Z,87.15
2022-09-30T19:34:02.065Z,87.51
2022-09-30T19:36:32.628Z,87.65
2022-09-30T19:39:11.902Z,87.33
2022-09-30T19:41:40.183Z,87.46
2022-09-30T19:44:07.049Z,87.50
2022-09-30T19:46:33.829Z,87.86
2022-09-30T19:49:00.684Z,88.00
2022-09-30T19:51:30.650Z,88.29
2022-09-30T19:54:06.313Z,88.16
2022-09-30T19:56:35.866Z,87.99
2022-09-30T19:59:03.784Z,88.23
2022-09-30T20:01:34.562Z,88.43
2022-09-30T20:04:05.478Z,88.44
2022-09-30T20:06:33.731Z,88.34
2022-09-30T20:09:04.052Z,88.51
2022-09-30T20:11:36.101Z,88.37
2022-09-30T20:14:24.662Z,88.90
2022-09-30T20:16:51.753Z,89.15
2022-09-30T20:19:19.633Z,89.12
2022-09-30T20:21:47.043Z,89.15
2022-09-30T20:24:18.146Z,89.14
2022-09-30T20:26:46.059Z,89.41
2022-09-30T20:29:13.256Z,89.57
2022-09-30T20:31:42.469Z,89.21
2022-09-30T20:34:14.395Z,89.04
2022-09-30T20:36:41.795Z,89.25
2022-09-30T20:39:09.056Z,89.33
2022-09-30T20:41:37.675Z,89.43
2022-09-30T20:44:13.839Z,89.27
2022-09-30T20:46:41.698Z,89.31
2022-09-30T20:49:09.407Z,89.39
2022-09-30T20:51:36.477Z,89.33
2022-09-30T20:54:03.378Z,89.53
2022-09-30T20:56:44.501Z,89.27
2022-09-30T20:59:17.769Z,89.55
2022-09-30T21:01:44.507Z,89.58
2022-09-30T21:04:11.343Z,89.77
2022-09-30T21:06:38.110Z,89.97
2022-09-30T21:09:05.416Z,89.88
2022-09-30T21:11:32.848Z,89.92
2022-09-30T21:14:00.040Z,89.96
2022-09-30T21:16:26.926Z,90.11
2022-09-30T21:18:53.805Z,90.15
2022-09-30T21:21:22.849Z,89.92
2022-09-30T21:23:53.146Z,89.95
2022-09-30T21:26:20.851Z,90.15
2022-09-30T21:28:49.645Z,90.51
2022-09-30T21:31:27.382Z,90.28
2022-09-30T21:33:56.623Z,90.66
2022-09-30T21:36:24.504Z,90.51
2022-09-30T21:38:51.999Z,90.53
2022-09-30T21:41:19.846Z,90.50
2022-09-30T21:43:47.154Z,90.66
2022-09-30T21:46:15.562Z,90.69
2022-09-30T21:48:42.607Z,90.74
2022-09-30T21:51:10.322Z,91.14
2022-09-30T21:53:38.778Z,91.15
2022-09-30T21:56:06.474Z,90.83
2022-09-30T21:58:33.843Z,91.14
2022-09-30T22:01:03.557Z,91.43
2022-09-30T22:03:37.157Z,91.44
2022-09-30T22:06:08.533Z,91.40
2022-09-30T22:08:40.120Z,91.62
2022-09-30T22:11:08.175Z,91.37
2022-09-30T22:13:34.914Z,91.11
2022-09-30T22:16:04.792Z,90.28
2022-09-30T22:18:32.229Z,90.86
2022-09-30T22:21:04.595Z,90.76
2022-09-30T22:23:31.399Z,91.01
2022-09-30T22:25:58.379Z,90.84
2022-09-30T22:28:25.346Z,90.38
2022-09-30T22:30:52.134Z,90.50
2022-09-30T22:33:37.449Z,90.18
2022-09-30T22:36:22.704Z,90.04
2022-09-30T22:38:49.577Z,90.05
2022-09-30T22:41:17.835Z,90.19
2022-09-30T22:43:44.612Z,89.92
2022-09-30T22:46:11.454Z,89.44
2022-09-30T22:48:38.403Z,89.76
2022-09-30T22:51:05.290Z,89.93
2022-09-30T22:53:32.031Z,89.58
2022-09-30T22:56:02.977Z,89.46
2022-09-30T22:58:29.621Z,90.08
2022-09-30T23:00:58.651Z,89.97
2022-09-30T23:03:25.902Z,89.89
2022-09-30T23:05:53.326Z,89.95
2022-09-30T23:08:20.085Z,89.28
2022-09-30T23:10:50.678Z,89.33
2022-09-30T23:13:20.080Z,89.31
2022-09-30T23:15:50.677Z,89.08
2022-09-30T23:18:17.631Z,89.09
2022-09-30T23:20:55.191Z,88.64
2022-09-30T23:23:22.010Z,88.66
2022-09-30T23:25:48.668Z,88.70
2022-09-30T23:28:15.412Z,89.30
2022-09-30T23:30:42.153Z,88.94
2022-09-30T23:33:12.360Z,89.88
2022-09-30T23:35:45.418Z,89.74
2022-09-30T23:38:12.066Z,89.48
2022-09-30T23:40:43.786Z,88.69
2022-09-30T23:43:10.599Z,88.92
2022-09-30T23:45:37.455Z,88.62
2022-09-30T23:48:04.486Z,88.94
2022-09-30T23:50:32.406Z,88.91
2022-09-30T23:52:59.625Z,89.15
2022-09-30T23:55:28.418Z,89.12
2022-09-30T23:57:57.762Z,89.12
